Time;durP1;ratioP1;P1;durP2;ratioP2;P2;SDS_P1;SDS_P2;PMS_P1;PMS_P2;Temp;Humidity;BMP_temperature;BMP_pressure;BME280_temperature;BME280_humidity;BME280_pressure;Samples;Min_cycle;Max_cycle;Signal;HPM_P1;HPM_P2
2022/01/13 00:01:02;;;;;;;17.33;12.20;;;;;;;;;;5072136;28;20523;-67
2022/01/13 00:03:29;;;;;;;19.70;12.17;;;;;;;;;;5071665;28;20501;-67
2022/01/13 00:05:58;;;;;;;19.83;11.63;;;;;;;;;;5071414;28;20463;-67
2022/01/13 00:08:25;;;;;;;26.83;14.17;;;;;;;;;;5070851;28;20968;-67
2022/01/13 00:10:52;;;;;;;16.23;11.03;;;;;;;;;;5071421;28;20448;-67
2022/01/13 00:13:24;;;;;;;17.43;10.33;;;;;;;;;;5071301;28;20455;-68
2022/01/13 00:16:22;;;;;;;18.77;12.10;;;;;;;;;;5070492;28;20445;-68
2022/01/13 00:18:41;;;;;;;15.90;11.27;;;;;;;;;;5070831;28;20575;-68
2022/01/13 00:21:16;;;;;;;19.40;12.63;;;;;;;;;;5070877;28;20935;-68
2022/01/13 00:23:46;;;;;;;23.20;12.53;;;;;;;;;;5071284;28;20530;-69
2022/01/13 00:26:20;;;;;;;20.27;12.10;;;;;;;;;;5070524;28;20488;-69
2022/01/13 00:28:49;;;;;;;21.43;11.80;;;;;;;;;;5071415;28;20451;-69
2022/01/13 00:31:18;;;;;;;16.30;10.33;;;;;;;;;;5070773;28;20451;-67
2022/01/13 00:33:47;;;;;;;18.00;11.77;;;;;;;;;;5071253;28;20826;-69
2022/01/13 00:36:15;;;;;;;18.87;11.33;;;;;;;;;;5070337;28;20460;-67
2022/01/13 00:38:42;;;;;;;20.07;11.70;;;;;;;;;;5071328;28;20483;-69
2022/01/13 00:41:10;;;;;;;17.50;12.70;;;;;;;;;;5070499;28;20979;-67
2022/01/13 00:43:40;;;;;;;17.13;11.80;;;;;;;;;;5071525;28;20459;-68
2022/01/13 00:46:07;;;;;;;21.30;13.57;;;;;;;;;;5070141;28;20463;-67
2022/01/13 00:48:35;;;;;;;19.30;12.70;;;;;;;;;;5070887;28;21011;-67
2022/01/13 00:51:02;;;;;;;17.53;11.83;;;;;;;;;;5071062;28;20463;-67
2022/01/13 00:53:31;;;;;;;14.83;10.87;;;;;;;;;;5070653;28;20563;-68
2022/01/13 00:56:01;;;;;;;19.33;11.33;;;;;;;;;;5071008;28;20551;-68
2022/01/13 00:58:28;;;;;;;21.50;12.83;;;;;;;;;;5067511;28;20472;-67
2022/01/13 01:00:56;;;;;;;17.50;11.10;;;;;;;;;;5070867;28;20960;-67
2022/01/13 01:03:23;;;;;;;19.73;12.43;;;;;;;;;;5070275;28;20445;-67
2022/01/13 01:05:50;;;;;;;21.13;12.53;;;;;;;;;;5070313;28;20467;-68
2022/01/13 01:08:17;;;;;;;21.83;14.00;;;;;;;;;;5069819;28;20975;-68
2022/01/13 01:10:48;;;;;;;21.67;14.27;;;;;;;;;;5070657;28;20449;-67
2022/01/13 01:13:19;;;;;;;22.10;13.00;;;;;;;;;;5070233;28;20454;-68
2022/01/13 01:15:50;;;;;;;16.53;12.67;;;;;;;;;;5070421;28;20815;-67
2022/01/13 01:18:27;;;;;;;18.17;12.83;;;;;;;;;;5064504;28;20488;-67
2022/01/13 01:21:17;;;;;;;20.43;11.60;;;;;;;;;;5070837;28;20479;-68
2022/01/13 01:23:59;;;;;;;26.10;14.73;;;;;;;;;;5070656;28;20445;-67
2022/01/13 01:26:36;;;;;;;19.07;12.40;;;;;;;;;;5070318;28;20473;-68
2022/01/13 01:29:12;;;;;;;19.87;12.90;;;;;;;;;;5070371;28;20460;-67
2022/01/13 01:31:46;;;;;;;25.67;13.20;;;;;;;;;;5072210;28;20448;-67
2022/01/13 01:34:23;;;;;;;17.83;12.17;;;;;;;;;;5074074;28;20453;-67
2022/01/13 01:36:51;;;;;;;23.53;14.30;;;;;;;;;;5074766;28;20456;-67
2022/01/13 01:39:19;;;;;;;22.77;15.03;;;;;;;;;;5074417;28;20489;-67
2022/01/13 01:41:48;;;;;;;24.40;13.67;;;;;;;;;;5074808;28;20544;-67
2022/01/13 01:44:16;;;;;;;22.17;14.37;;;;;;;;;;5074133;28;20481;-67
2022/01/13 01:46:45;;;;;;;18.53;13.40;;;;;;;;;;5074490;28;20985;-68
2022/01/13 01:49:16;;;;;;;24.40;14.53;;;;;;;;;;5073856;28;21036;-67
2022/01/13 01:51:43;;;;;;;18.37;11.97;;;;;;;;;;5074350;28;20477;-68
2022/01/13 01:54:11;;;;;;;24.50;13.17;;;;;;;;;;5073399;28;20449;-69
2022/01/13 01:56:38;;;;;;;22.50;14.03;;;;;;;;;;5074451;28;20869;-68
2022/01/13 01:59:08;;;;;;;21.53;13.50;;;;;;;;;;5062898;28;20577;-67
2022/01/13 02:01:36;;;;;;;22.67;13.10;;;;;;;;;;5072596;28;20803;-68
2022/01/13 02:04:03;;;;;;;21.77;13.40;;;;;;;;;;5074042;28;20567;-68
2022/01/13 02:06:30;;;;;;;23.80;14.10;;;;;;;;;;5073725;28;20886;-68
2022/01/13 02:08:58;;;;;;;18.60;12.93;;;;;;;;;;5074284;28;20532;-68
2022/01/13 02:11:25;;;;;;;24.60;14.17;;;;;;;;;;5073567;28;21015;-67
2022/01/13 02:13:54;;;;;;;26.60;13.90;;;;;;;;;;5073232;28;20831;-67
2022/01/13 02:16:38;;;;;;;18.90;12.60;;;;;;;;;;5073733;28;20484;-67
2022/01/13 02:19:06;;;;;;;18.73;12.03;;;;;;;;;;5068120;28;20482;-67
2022/01/13 02:21:35;;;;;;;18.30;12.83;;;;;;;;;;5074033;28;20467;-68
2022/01/13 02:24:02;;;;;;;22.47;13.00;;;;;;;;;;5073140;28;21006;-68
2022/01/13 02:26:29;;;;;;;26.80;16.67;;;;;;;;;;5073911;28;20870;-67
2022/01/13 02:28:56;;;;;;;25.60;15.30;;;;;;;;;;5073639;28;20466;-67
2022/01/13 02:31:25;;;;;;;24.63;14.53;;;;;;;;;;5072809;28;20451;-67
2022/01/13 02:33:53;;;;;;;24.97;14.60;;;;;;;;;;5072824;28;20460;-68
2022/01/13 02:36:20;;;;;;;21.73;14.87;;;;;;;;;;5073045;28;20483;-67
2022/01/13 02:38:50;;;;;;;21.03;14.63;;;;;;;;;;5072155;28;20483;-68
2022/01/13 02:41:18;;;;;;;22.90;14.40;;;;;;;;;;5082665;28;20535;-68
2022/01/13 02:43:46;;;;;;;20.97;14.23;;;;;;;;;;5071489;28;20971;-67
2022/01/13 02:46:30;;;;;;;26.03;14.97;;;;;;;;;;5072564;28;20486;-67
2022/01/13 02:48:57;;;;;;;25.57;15.43;;;;;;;;;;5073259;28;20862;-68
2022/01/13 02:51:24;;;;;;;26.47;15.50;;;;;;;;;;5072444;28;20802;-67
2022/01/13 02:53:53;;;;;;;25.00;13.97;;;;;;;;;;5073001;28;20964;-67
2022/01/13 02:56:20;;;;;;;26.77;15.30;;;;;;;;;;5072611;28;20805;-67
2022/01/13 02:58:47;;;;;;;34.47;14.90;;;;;;;;;;5067579;28;20983;-68
2022/01/13 03:01:14;;;;;;;25.03;14.90;;;;;;;;;;5072652;28;20519;-67
2022/01/13 03:03:42;;;;;;;26.00;14.80;;;;;;;;;;5072554;28;20506;-67
2022/01/13 03:06:10;;;;;;;28.37;16.03;;;;;;;;;;5072260;28;20814;-67
2022/01/13 03:08:37;;;;;;;27.07;15.87;;;;;;;;;;5073491;28;20535;-68
2022/01/13 03:11:06;;;;;;;21.80;14.23;;;;;;;;;;5072137;28;20789;-67
2022/01/13 03:13:33;;;;;;;23.47;15.57;;;;;;;;;;5073216;28;20531;-67
2022/01/13 03:16:05;;;;;;;23.40;14.80;;;;;;;;;;5072999;28;20449;-67
2022/01/13 03:18:32;;;;;;;29.97;15.63;;;;;;;;;;5072699;28;20450;-68
2022/01/13 03:20:59;;;;;;;23.83;15.47;;;;;;;;;;5073309;28;20555;-67
2022/01/13 03:23:26;;;;;;;26.77;14.50;;;;;;;;;;5072303;28;20454;-68
2022/01/13 03:25:53;;;;;;;22.40;15.97;;;;;;;;;;5072208;28;20561;-68
2022/01/13 03:28:30;;;;;;;23.90;15.13;;;;;;;;;;5071963;28;20450;-67
2022/01/13 03:30:58;;;;;;;29.90;17.20;;;;;;;;;;5072376;28;20473;-67
2022/01/13 03:33:25;;;;;;;27.80;16.77;;;;;;;;;;5065630;28;20513;-68
2022/01/13 03:35:52;;;;;;;28.20;17.83;;;;;;;;;;5062082;28;20540;-68
2022/01/13 03:38:19;;;;;;;21.97;14.57;;;;;;;;;;5074863;28;20949;-67
2022/01/13 03:40:47;;;;;;;24.73;14.53;;;;;;;;;;5073180;28;20525;-68
2022/01/13 03:43:16;;;;;;;20.63;16.07;;;;;;;;;;5071671;28;20455;-68
2022/01/13 03:45:45;;;;;;;19.13;12.77;;;;;;;;;;5072081;28;20927;-68
2022/01/13 03:48:14;;;;;;;27.90;15.63;;;;;;;;;;5071794;28;20450;-68
2022/01/13 03:50:41;;;;;;;24.07;14.60;;;;;;;;;;5072330;28;20854;-67
2022/01/13 03:53:27;;;;;;;23.97;14.50;;;;;;;;;;5071526;28;20480;-67
2022/01/13 03:56:18;;;;;;;22.30;13.97;;;;;;;;;;5070621;28;20883;-68
2022/01/13 03:59:04;;;;;;;21.60;14.10;;;;;;;;;;5033594;28;20464;-67
2022/01/13 04:01:49;;;;;;;31.50;13.70;;;;;;;;;;5072060;28;20457;-68
2022/01/13 04:04:18;;;;;;;25.40;13.70;;;;;;;;;;5070568;28;20449;-68
2022/01/13 04:06:46;;;;;;;26.03;16.20;;;;;;;;;;5071797;28;20518;-67
2022/01/13 04:09:26;;;;;;;26.20;14.23;;;;;;;;;;5065642;28;20452;-69
2022/01/13 04:11:53;;;;;;;24.87;15.07;;;;;;;;;;5072170;28;20791;-67
2022/01/13 04:14:28;;;;;;;21.33;13.63;;;;;;;;;;5070723;28;20454;-67
2022/01/13 04:16:55;;;;;;;22.67;13.50;;;;;;;;;;5072176;28;20527;-67
2022/01/13 04:19:24;;;;;;;24.70;15.00;;;;;;;;;;5070826;28;20481;-67
2022/01/13 04:21:51;;;;;;;21.70;13.77;;;;;;;;;;5071999;28;20467;-68
2022/01/13 04:24:18;;;;;;;20.70;11.83;;;;;;;;;;5070761;28;20448;-67
2022/01/13 04:26:45;;;;;;;19.70;12.67;;;;;;;;;;5071326;28;20445;-68
2022/01/13 04:29:27;;;;;;;26.40;15.20;;;4.70;1.00;;;;;;5069861;28;20450;-67
2022/01/13 04:31:54;;;;;;;22.37;14.60;;;1.20;99.90;;;;;;5071699;28;20449;-68
2022/01/13 04:34:23;;;;;;;17.73;12.23;;;1.10;1.00;;;;;;5070537;28;20452;-68
2022/01/13 04:36:50;;;;;;;21.57;14.50;;;1.20;1.00;;;;;;5071603;28;20455;-68
2022/01/13 04:39:17;;;;;;;21.33;14.47;;;1.10;1.00;;;;;;5070752;28;21071;-68
2022/01/13 04:41:46;;;;;;;20.10;13.30;;;1.20;1.00;;;;;;5071454;28;20553;-68
2022/01/13 04:44:16;;;;;;;28.37;14.63;;;1.10;99.90;;;;;;5070521;28;20502;-68
2022/01/13 04:46:44;;;;;;;23.43;13.43;;;;;;;;;;5071281;28;20479;-69
2022/01/13 04:49:11;;;;;;;25.60;15.03;;;;;;;;;;5070907;28;20464;-74
2022/01/13 04:51:40;;;;;;;23.47;15.07;;;;;;;;;;5071338;28;20487;-68
2022/01/13 04:54:08;;;;;;;20.53;13.10;;;;;;;;;;5070528;28;20450;-68
2022/01/13 04:56:41;;;;;;;26.97;13.80;;;;;;;;;;5071425;28;20540;-69
2022/01/13 04:59:09;;;;;;;21.47;12.53;;;;;;;;;;5070782;28;20507;-68
2022/01/13 05:01:36;;;;;;;21.93;13.93;;;;;;;;;;5071228;28;20914;-67
2022/01/13 05:04:03;;;;;;;23.00;14.67;;;;;;;;;;5070445;28;20955;-68
2022/01/13 05:06:31;;;;;;;20.97;13.83;;;;;;;;;;5070537;28;20453;-69
2022/01/13 05:08:59;;;;;;;22.53;13.80;;;;;;;;;;5071028;28;20450;-69
2022/01/13 05:11:26;;;;;;;21.17;13.63;;;;;;;;;;5070266;28;20896;-69
2022/01/13 05:13:54;;;;;;;22.70;13.27;;;;;;;;;;5070886;28;20532;-69
2022/01/13 05:16:25;;;;;;;18.50;12.50;;;;;;;;;;5070584;28;20476;-68
2022/01/13 05:18:56;;;;;;;20.37;13.43;;;;;;;;;;5070820;28;20467;-68
2022/01/13 05:21:26;;;;;;;18.77;12.53;;;;;;;;;;5070369;28;20457;-68
2022/01/13 05:23:53;;;;;;;21.73;14.20;;;;;;;;;;5070354;28;20451;-68
2022/01/13 05:26:23;;;;;;;22.87;14.83;;;;;;;;;;5070409;28;20807;-68
2022/01/13 05:28:51;;;;;;;21.10;12.40;;;;;;;;;;5070977;28;20520;-68
2022/01/13 05:31:18;;;;;;;18.50;12.07;;;;;;;;;;5069703;28;20945;-69
2022/01/13 05:33:45;;;;;;;26.87;17.07;;;;;;;;;;5069818;28;20442;-69
2022/01/13 05:36:13;;;;;;;22.90;15.13;;;;;;;;;;5069891;28;20460;-71
2022/01/13 05:38:42;;;;;;;19.47;11.30;;;;;;;;;;5070467;28;20454;-68
2022/01/13 05:41:09;;;;;;;26.10;14.23;;;;;;;;;;5070082;28;20488;-68
2022/01/13 05:43:37;;;;;;;18.50;13.03;;;;;;;;;;5070878;28;20445;-68
2022/01/13 05:46:05;;;;;;;19.20;13.50;;;;;;;;;;5069780;28;20449;-68
2022/01/13 05:48:32;;;;;;;20.10;12.67;;;;;;;;;;5070833;28;20452;-68
2022/01/13 05:51:00;;;;;;;17.20;12.80;;;;;;;;;;5071153;28;20461;-68
2022/01/13 05:53:27;;;;;;;18.40;10.93;;;;;;;;;;5070416;28;20469;-69
2022/01/13 05:55:54;;;;;;;19.63;13.33;;;;;;;;;;5070250;28;20449;-68
2022/01/13 05:58:21;;;;;;;22.50;14.03;;;;;;;;;;5070324;28;20441;-68
2022/01/13 06:00:50;;;;;;;16.40;11.73;;;;;;;;;;5070851;28;20485;-68
2022/01/13 06:03:17;;;;;;;21.70;14.70;;;;;;;;;;5069898;28;20457;-68
2022/01/13 06:05:45;;;;;;;20.57;13.77;;;;;;;;;;5070279;28;20520;-68
2022/01/13 06:08:12;;;;;;;19.40;12.30;;;;;;;;;;5069936;28;20467;-68
2022/01/13 06:10:43;;;;;;;22.90;14.00;;;;;;;;;;5070828;28;20456;-68
2022/01/13 06:13:10;;;;;;;18.13;12.57;;;;;;;;;;5069781;28;20441;-68
2022/01/13 06:15:38;;;;;;;16.60;13.20;;;;;;;;;;5071350;28;20956;-68
2022/01/13 06:18:11;;;;;;;22.50;13.53;;;;;;;;;;5079469;28;20471;-70
2022/01/13 06:20:39;;;;;;;17.07;12.40;;;;;;;;;;5084216;28;21007;-69
2022/01/13 06:23:07;;;;;;;22.10;13.13;;;;;;;;;;5074907;28;20811;-68
2022/01/13 06:25:34;;;;;;;21.73;12.63;;;;;;;;;;5074290;28;20476;-68
2022/01/13 06:28:01;;;;;;;22.97;15.20;;;;;;;;;;5074659;28;20452;-69
2022/01/13 06:30:30;;;;;;;22.60;13.77;;;;;;;;;;5073543;28;20481;-68
2022/01/13 06:32:57;;;;;;;23.40;13.70;;;;;;;;;;5074222;28;20446;-68
2022/01/13 06:35:25;;;;;;;20.60;13.97;;;;;;;;;;5073043;28;20643;-68
2022/01/13 06:37:53;;;;;;;22.93;13.97;;;;;;;;;;5073719;28;20445;-68
2022/01/13 06:40:20;;;;;;;20.53;12.50;;;;;;;;;;5073347;28;20614;-68
2022/01/13 06:42:47;;;;;;;25.53;14.77;;;;;;;;;;5074062;28;20445;-69
2022/01/13 06:45:14;;;;;;;19.40;13.07;;;;;;;;;;5073279;28;20452;-68
2022/01/13 06:47:42;;;;;;;22.27;13.60;;;;;;;;;;5073183;28;20454;-69
2022/01/13 06:50:11;;;;;;;24.57;15.30;;;;;;;;;;5072897;28;20453;-68
2022/01/13 06:52:40;;;;;;;16.50;11.10;;;;;;;;;;5073584;28;20484;-68
2022/01/13 06:55:07;;;;;;;23.17;15.73;;;;;;;;;;5073201;28;20472;-68
2022/01/13 06:57:34;;;;;;;24.57;14.60;;;;;;;;;;5073309;28;20452;-68
2022/01/13 07:00:01;;;;;;;18.60;12.40;;;;;;;;;;5073627;28;20834;-68
2022/01/13 07:02:30;;;;;;;20.83;13.30;;;;;;;;;;5073087;28;20869;-68
2022/01/13 07:04:57;;;;;;;23.60;15.73;;;;;;;;;;5073267;28;20782;-68
2022/01/13 07:07:25;;;;;;;23.27;14.23;;;;;;;;;;5072699;28;20841;-68
2022/01/13 07:09:53;;;;;;;22.10;15.97;;;;;;;;;;5073372;28;20484;-68
2022/01/13 07:12:20;;;;;;;24.73;14.73;;;;;;;;;;5072516;28;20533;-68
2022/01/13 07:14:47;;;;;;;20.97;13.90;;;;;;;;;;5073376;28;20545;-68
2022/01/13 07:25:34;;;;;;;20.80;13.30;;;;;;;;;;5205878;22;20488;-70
2022/01/13 07:28:01;;;;;;;23.80;14.40;;;;;;;;;;4990394;28;20944;-67
2022/01/13 07:30:28;;;;;;;22.17;13.03;;;;;;;;;;4987745;28;20805;-70
2022/01/13 07:32:55;;;;;;;18.33;12.60;;;;;;;;;;4982253;28;20900;-70
2022/01/13 07:35:22;;;;;;;22.83;14.67;;;;;;;;;;4978131;28;20492;-67
2022/01/13 07:37:50;;;;;;;24.53;13.17;;;;;;;;;;4985741;28;20481;-70
2022/01/13 07:40:17;;;;;;;16.30;12.43;;;;;;;;;;4987246;28;20482;-68
2022/01/13 07:42:46;;;;;;;17.30;12.10;;;;;;;;;;4985633;28;20944;-70
2022/01/13 07:45:14;;;;;;;22.40;13.90;;;;;;;;;;4980223;28;20445;-68
2022/01/13 07:47:41;;;;;;;22.20;14.17;;;;;;;;;;4979009;28;21158;-68
2022/01/13 07:50:09;;;;;;;23.10;12.77;;;;;;;;;;4989824;28;20461;-68
2022/01/13 07:52:37;;;;;;;22.57;13.97;;;;;;;;;;4991057;28;20447;-68
2022/01/13 07:55:04;;;;;;;20.67;14.07;;;;;;;;;;4984127;28;20537;-68
2022/01/13 07:57:31;;;;;;;22.00;13.97;;;;;;;;;;4978635;28;20532;-68
2022/01/13 08:00:00;;;;;;;22.63;14.30;;;;;;;;;;4984545;28;20485;-68
2022/01/13 08:02:27;;;;;;;22.00;14.33;;;;;;;;;;4985145;28;21012;-67
2022/01/13 08:04:54;;;;;;;22.20;15.27;;;;;;;;;;4981199;28;20453;-68
2022/01/13 08:07:21;;;;;;;19.87;14.73;;;;;;;;;;4982262;28;20463;-67
2022/01/13 08:09:49;;;;;;;24.13;14.50;;;;;;;;;;4983328;28;20474;-68
2022/01/13 08:12:16;;;;;;;26.23;15.60;;;;;;;;;;4985849;28;20544;-68
2022/01/13 08:14:43;;;;;;;22.50;14.17;;;;;;;;;;4980676;28;20622;-70
2022/01/13 08:19:45;;;;;;;23.27;13.73;;;;;;;;;;4979523;28;20515;-70
2022/01/13 08:19:59;;;;;;;29.30;17.20;;;;;;;;;;4980161;28;20445;-68
2022/01/13 08:22:26;;;;;;;21.33;14.83;;;;;;;;;;4985486;28;20449;-70
2022/01/13 08:24:53;;;;;;;34.63;17.63;;;;;;;;;;4992263;28;20452;-68
2022/01/13 08:27:20;;;;;;;23.97;15.60;;;;;;;;;;4986303;28;20536;-68
2022/01/13 08:29:47;;;;;;;25.30;16.97;;;;;;;;;;4984993;28;20449;-70
2022/01/13 08:32:16;;;;;;;24.43;13.93;;;;;;;;;;4979010;28;20544;-68
2022/01/13 08:34:43;;;;;;;15.97;11.17;;;;;;;;;;4990629;28;21106;-68
2022/01/13 08:37:10;;;;;;;16.27;9.87;;;;;;;;;;4984977;28;20981;-68
2022/01/13 08:39:43;;;;;;;13.50;8.23;;;;;;;;;;4984765;28;20551;-67
2022/01/13 08:42:11;;;;;;;13.77;8.87;;;;;;;;;;4983182;28;20961;-68
2022/01/13 08:44:38;;;;;;;10.20;8.50;;;;;;;;;;4977714;28;20533;-68
2022/01/13 08:47:06;;;;;;;16.87;9.27;;;;;;;;;;4983323;28;20450;-70
2022/01/13 08:49:34;;;;;;;12.40;9.03;;;;;;;;;;4984709;28;20455;-68
2022/01/13 08:52:02;;;;;;;14.70;8.83;;;;;;;;;;4981745;28;20480;-68
2022/01/13 08:54:29;;;;;;;12.83;8.80;;;;;;;;;;4981008;28;21147;-68
2022/01/13 08:56:57;;;;;;;15.77;9.43;;;;;;;;;;4982285;28;20545;-68
2022/01/13 08:59:25;;;;;;;19.93;10.97;;;;;;;;;;4985079;28;20864;-68
2022/01/13 09:01:53;;;;;;;13.20;8.73;;;;;;;;;;4982397;28;20503;-68
2022/01/13 09:04:20;;;;;;;25.77;15.97;;;;;;;;;;4978140;28;20457;-68
2022/01/13 09:06:48;;;;;;;17.23;11.07;;;;;;;;;;4980192;28;20537;-68
2022/01/13 09:09:15;;;;;;;19.13;13.60;;;;;;;;;;4976867;28;20543;-68
2022/01/13 09:11:43;;;;;;;17.47;10.43;;;;;;;;;;4980907;28;20484;-68
2022/01/13 09:14:10;;;;;;;17.87;10.90;;;;;;;;;;4988062;28;20481;-68
2022/01/13 09:16:43;;;;;;;20.63;9.63;;;;;;;;;;4991646;28;21192;-68
2022/01/13 09:19:12;;;;;;;16.07;9.77;;;;;;;;;;4990386;28;20442;-69
2022/01/13 09:21:39;;;;;;;14.73;9.40;;;;;;;;;;4979634;28;20490;-69
2022/01/13 09:24:10;;;;;;;17.00;10.80;;;;;;;;;;4992985;28;20952;-69
2022/01/13 09:26:37;;;;;;;20.70;12.13;;;;;;;;;;4996941;28;20567;-68
2022/01/13 09:29:05;;;;;;;17.40;12.33;;;;;;;;;;4985114;28;20886;-69
2022/01/13 09:31:33;;;;;;;17.60;13.87;;;;;;;;;;4985001;28;20475;-68
2022/01/13 09:34:01;;;;;;;21.30;13.40;;;;;;;;;;4983700;28;20450;-69
2022/01/13 09:36:29;;;;;;;18.30;11.77;;;;;;;;;;4979803;28;20963;-68
2022/01/13 09:38:56;;;;;;;23.10;12.97;;;;;;;;;;4982349;28;20867;-68
2022/01/13 09:41:26;;;;;;;21.47;15.27;;;;;;;;;;4977426;28;20575;-69
2022/01/13 09:43:54;;;;;;;19.33;12.37;;;;;;;;;;4990999;28;20480;-68
2022/01/13 09:46:22;;;;;;;20.23;12.10;;;;;;;;;;4977775;28;20976;-69
2022/01/13 09:48:51;;;;;;;17.97;11.80;;;;;;;;;;4990630;28;20504;-69
2022/01/13 09:51:18;;;;;;;20.53;12.37;;;;;;;;;;4977624;28;20453;-69
2022/01/13 09:53:45;;;;;;;19.17;12.33;;;;;;;;;;4980876;28;20618;-68
2022/01/13 09:56:13;;;;;;;20.27;12.33;;;;;;;;;;5006789;28;20560;-69
2022/01/13 09:58:44;;;;;;;18.20;12.37;;;;;;;;;;4981785;28;20454;-68
2022/01/13 10:01:11;;;;;;;23.20;13.70;;;;;;;;;;4981583;28;20516;-68
2022/01/13 10:03:38;;;;;;;16.40;11.30;;;;;;;;;;4981218;28;20454;-68
2022/01/13 10:06:10;;;;;;;18.90;11.90;;;;;;;;;;4975644;28;20450;-68
2022/01/13 10:08:44;;;;;;;16.27;10.30;;;;;;;;;;4987822;28;20455;-68
2022/01/13 10:11:44;;;;;;;17.77;10.93;;;;;;;;;;4982834;28;20459;-68
2022/01/13 10:14:18;;;;;;;14.40;10.17;;;;;;;;;;4947261;29;20448;-68
2022/01/13 10:16:46;;;;;;;26.37;12.57;;;;;;;;;;4980108;28;21074;-68
2022/01/13 10:19:29;;;;;;;15.73;10.90;;;;;;;;;;4982630;28;20457;-68
2022/01/13 10:21:58;;;;;;;15.03;10.90;;;;;;;;;;4981271;28;20587;-68
2022/01/13 10:24:25;;;;;;;16.80;11.50;;;;;;;;;;4992171;28;20542;-68
2022/01/13 10:26:59;;;;;;;14.37;10.10;;;;;;;;;;4994113;28;20481;-68
2022/01/13 10:29:38;;;;;;;15.17;10.43;;;;;;;;;;4985462;28;20542;-68
2022/01/13 10:32:05;;;;;;;13.37;9.97;;;;;;;;;;4981351;28;20503;-70
2022/01/13 10:34:33;;;;;;;20.40;13.20;;;;;;;;;;4983979;28;20453;-68
2022/01/13 10:37:01;;;;;;;18.70;10.83;;;;;;;;;;4994636;28;20449;-68
2022/01/13 10:39:49;;;;;;;14.27;10.60;;;;;;;;;;4980297;28;20541;-68
2022/01/13 10:42:44;;;;;;;16.80;10.50;;;;;;;;;;4982023;28;20521;-68
2022/01/13 10:45:10;;;;;;;15.07;9.87;;;;;;;;;;4983071;28;20441;-68
2022/01/13 10:47:39;;;;;;;18.07;11.63;;;;;;;;;;4980337;28;20469;-68
2022/01/13 10:50:07;;;;;;;16.27;10.33;;;;;;;;;;4984449;28;20542;-68
2022/01/13 10:52:35;;;;;;;14.60;9.10;;;;;;;;;;4986193;28;20581;-69
2022/01/13 10:55:03;;;;;;;13.90;10.63;;;;;;;;;;4993855;28;20995;-69
2022/01/13 10:57:31;;;;;;;14.50;9.23;;;;;;;;;;4991557;28;20475;-68
2022/01/13 10:59:58;;;;;;;12.47;9.60;;;;;;;;;;4985435;28;20451;-69
2022/01/13 11:02:27;;;;;;;12.00;8.70;;;;;;;;;;4979977;28;20575;-68
2022/01/13 11:04:55;;;;;;;12.50;9.27;;;;;;;;;;4981094;28;20544;-69
2022/01/13 11:07:23;;;;;;;13.73;9.50;;;;;;;;;;4987112;28;20490;-69
2022/01/13 11:09:53;;;;;;;18.53;11.17;;;;;;;;;;4974069;28;20464;-68
2022/01/13 11:12:29;;;;;;;11.27;8.53;;;;;;;;;;4979802;28;20850;-69
2022/01/13 11:15:00;;;;;;;14.27;9.30;;;;;;;;;;4980534;28;20438;-69
2022/01/13 11:17:29;;;;;;;12.97;9.30;;;;;;;;;;4984701;28;20462;-68
2022/01/13 11:19:57;;;;;;;12.07;9.00;;;;;;;;;;4986956;28;20457;-69
2022/01/13 11:22:25;;;;;;;14.17;9.70;;;;;;;;;;4982084;28;20611;-68
2022/01/13 11:24:52;;;;;;;13.33;9.20;;;;;;;;;;4990244;28;20455;-68
2022/01/13 11:27:21;;;;;;;12.30;9.07;;;;;;;;;;4984226;28;20549;-69
2022/01/13 11:29:48;;;;;;;13.77;9.80;;;;;;;;;;4986486;28;20458;-68
2022/01/13 11:32:16;;;;;;;13.90;9.27;;;;;;;;;;4983085;28;21047;-68
2022/01/13 11:34:45;;;;;;;16.60;9.93;;;;;;;;;;4980416;28;20535;-68
2022/01/13 11:37:12;;;;;;;13.07;8.23;;;;;;;;;;4993277;28;20535;-69
2022/01/13 11:39:40;;;;;;;15.70;10.23;;;;;;;;;;4979514;28;20464;-68
2022/01/13 11:42:08;;;;;;;13.40;9.20;;;;;;;;;;4982582;28;20576;-69
2022/01/13 11:44:36;;;;;;;12.63;9.13;;;;;;;;;;4985508;28;20450;-68
2022/01/13 11:47:08;;;;;;;12.57;9.00;;;;;;;;;;4985037;28;20457;-69
2022/01/13 11:49:44;;;;;;;14.47;9.13;;;;;;;;;;4978894;28;20449;-69
2022/01/13 11:52:15;;;;;;;13.90;10.10;;;;;;;;;;4979385;28;20934;-69
2022/01/13 11:54:43;;;;;;;14.77;9.70;;;;;;;;;;4997985;28;20498;-69
2022/01/13 11:57:12;;;;;;;14.87;10.23;;;;;;;;;;4997223;28;20541;-69
2022/01/13 11:59:40;;;;;;;16.10;9.97;;;;;;;;;;4981316;28;20985;-70
2022/01/13 12:02:26;;;;;;;16.07;11.53;;;;;;;;;;4987373;28;20509;-69
2022/01/13 12:05:05;;;;;;;22.50;12.70;;;;;;;;;;4992627;28;20509;-69
2022/01/13 12:07:37;;;;;;;13.90;10.33;;;;;;;;;;4989363;28;20452;-70
2022/01/13 12:10:04;;;;;;;14.93;10.40;;;;;;;;;;4986560;28;20475;-69
2022/01/13 12:12:32;;;;;;;11.77;9.40;;;;;;;;;;4979642;28;20457;-69
2022/01/13 12:15:16;;;;;;;11.90;9.47;;;;;;;;;;4979375;28;20454;-70
2022/01/13 12:17:47;;;;;;;13.60;9.80;;;;;;;;;;4982098;28;20446;-70
2022/01/13 12:20:25;;;;;;;11.23;8.50;;;;;;;;;;4986241;28;20465;-68
2022/01/13 12:23:02;;;;;;;16.33;10.63;;;;;;;;;;4984129;28;20488;-68
2022/01/13 12:25:32;;;;;;;14.03;9.87;;;;;;;;;;4997205;28;20582;-67
2022/01/13 12:28:00;;;;;;;12.90;9.93;;;;;;;;;;4979134;28;20444;-69
2022/01/13 12:30:28;;;;;;;15.10;10.13;;;;;;;;;;4984439;28;20458;-70
2022/01/13 12:32:56;;;;;;;13.90;9.63;;;;;;;;;;4985541;28;20543;-69
2022/01/13 12:35:31;;;;;;;16.30;10.00;;;;;;;;;;4982997;28;20589;-69
2022/01/13 12:38:04;;;;;;;14.33;9.30;;;;;;;;;;4988962;28;20532;-69
2022/01/13 12:40:40;;;;;;;13.80;9.60;;;;;;;;;;4982700;28;20453;-68
2022/01/13 12:43:21;;;;;;;16.20;9.60;;;;;;;;;;4973362;28;20501;-68
2022/01/13 12:45:48;;;;;;;15.90;9.93;;;;;;;;;;4972219;28;20938;-71
2022/01/13 12:48:15;;;;;;;10.97;9.07;;;;;;;;;;4984909;28;20564;-68
2022/01/13 12:50:44;;;;;;;13.57;10.03;;;;;;;;;;4984723;28;20539;-70
2022/01/13 12:53:17;;;;;;;17.10;10.60;;;;;;;;;;4979828;28;20493;-69
2022/01/13 12:55:46;;;;;;;16.07;10.40;;;;;;;;;;5003500;28;20460;-69
2022/01/13 12:58:13;;;;;;;12.20;9.47;;;;;;;;;;4983041;28;20549;-69
2022/01/13 13:00:40;;;;;;;13.20;10.07;;;;;;;;;;4984754;28;20535;-69
2022/01/13 13:03:08;;;;;;;14.50;9.97;;;;;;;;;;4980977;28;20579;-69
2022/01/13 13:05:40;;;;;;;12.73;9.33;;;;;;;;;;4977827;28;20490;-69
2022/01/13 13:08:08;;;;;;;15.07;10.27;;;;;;;;;;4982083;28;20453;-69
2022/01/13 13:10:37;;;;;;;14.53;9.70;;;;;;;;;;4984338;28;20940;-69
2022/01/13 13:13:04;;;;;;;15.23;9.83;;;;;;;;;;4982565;28;20484;-69
2022/01/13 13:15:40;;;;;;;16.70;10.97;;;;;;;;;;4977652;28;20524;-68
2022/01/13 13:18:09;;;;;;;15.47;9.57;;;;;;;;;;4979517;28;20500;-69
2022/01/13 13:20:37;;;;;;;17.20;10.37;;;;;;;;;;4984113;28;20544;-69
2022/01/13 13:23:06;;;;;;;15.73;10.37;;;;;;;;;;4984419;28;20848;-69
2022/01/13 13:25:35;;;;;;;17.77;11.43;;;;;;;;;;4996897;28;21079;-68
2022/01/13 13:28:20;;;;;;;13.67;9.77;;;;;;;;;;4977449;28;20522;-69
2022/01/13 13:30:47;;;;;;;14.83;10.17;;;;;;;;;;4981269;28;20493;-69
2022/01/13 13:33:14;;;;;;;12.67;9.70;;;;;;;;;;4984554;28;20536;-69
2022/01/13 13:35:42;;;;;;;13.00;9.63;;;;;;;;;;4983866;28;20531;-68
2022/01/13 13:38:12;;;;;;;14.53;9.40;;;;;;;;;;4987017;28;20536;-68
2022/01/13 13:40:43;;;;;;;13.30;9.73;;;;;;;;;;4982764;28;20449;-68
2022/01/13 13:43:10;;;;;;;16.07;9.43;;;;;;;;;;4977248;28;20477;-68
2022/01/13 13:45:39;;;;;;;16.70;10.23;;;;;;;;;;4990648;28;20548;-68
2022/01/13 13:48:06;;;;;;;14.60;9.90;;;;;;;;;;4978238;28;20455;-68
2022/01/13 13:50:33;;;;;;;15.80;10.33;;;;;;;;;;4977499;28;21017;-68
2022/01/13 13:53:11;;;;;;;15.13;10.67;;;;;;;;;;4977834;28;20965;-70
2022/01/13 13:55:38;;;;;;;16.33;9.53;;;;;;;;;;5002240;28;20853;-69
2022/01/13 13:58:07;;;;;;;11.00;9.10;;;;;;;;;;4983368;28;20456;-69
2022/01/13 14:00:35;;;;;;;15.63;9.10;;;;;;;;;;4984041;28;20536;-68
2022/01/13 14:03:05;;;;;;;13.60;9.90;;;;;;;;;;4979997;28;20567;-68
2022/01/13 14:05:41;;;;;;;14.27;10.20;;;;;;;;;;4977475;28;20449;-68
2022/01/13 14:08:09;;;;;;;13.47;8.70;;;;;;;;;;4980771;28;20501;-69
2022/01/13 14:10:37;;;;;;;17.60;10.53;;;;;;;;;;4983904;28;20478;-69
2022/01/13 14:13:05;;;;;;;11.87;9.60;;;;;;;;;;4982315;28;20540;-69
2022/01/13 14:15:33;;;;;;;13.73;10.40;;;;;;;;;;4977455;28;20813;-68
2022/01/13 14:18:15;;;;;;;13.70;9.77;;;;;;;;;;4979916;28;20453;-69
2022/01/13 14:20:45;;;;;;;14.47;9.70;;;;;;;;;;4975009;28;20555;-68
2022/01/13 14:23:16;;;;;;;15.57;10.23;;;;;;;;;;4977477;28;20849;-68
2022/01/13 14:25:44;;;;;;;14.27;9.97;;;;;;;;;;4995795;28;20572;-68
2022/01/13 14:28:12;;;;;;;11.90;9.40;;;;;;;;;;4977332;28;20458;-68
2022/01/13 14:30:40;;;;;;;17.00;11.23;;;;;;;;;;4981608;28;20497;-68
2022/01/13 14:33:14;;;;;;;16.67;10.73;;;;;;;;;;4984231;28;20544;-68
2022/01/13 14:35:41;;;;;;;19.00;10.90;;;1.20;1.00;;;;;;4983916;28;20507;-69
2022/01/13 14:38:12;;;;;;;15.10;10.53;;;6.70;99.90;;;;;;4987605;28;20454;-68